sensor_id;sensor_type;location;lat;lon;timestamp;P1;durP1;ratioP1;P2;durP2;ratioP2
11054;SDS011;5580;50.106;8.702;2023-06-10T00:00:54;14.73;;;11.43;;
11054;SDS011;5580;50.106;8.702;2023-06-10T00:03:20;13.07;;;10.10;;
11054;SDS011;5580;50.106;8.702;2023-06-10T00:05:48;16.00;;;11.57;;
11054;SDS011;5580;50.106;8.702;2023-06-10T00:08:14;14.10;;;10.97;;
11054;SDS011;5580;50.106;8.702;2023-06-10T00:10:40;14.90;;;10.70;;
11054;SDS011;5580;50.106;8.702;2023-06-10T00:13:06;15.53;;;10.93;;
11054;SDS011;5580;50.106;8.702;2023-06-10T00:15:36;14.97;;;10.77;;
11054;SDS011;5580;50.106;8.702;2023-06-10T00:18:02;14.00;;;10.80;;
11054;SDS011;5580;50.106;8.702;2023-06-10T00:20:28;14.37;;;10.63;;
11054;SDS011;5580;50.106;8.702;2023-06-10T00:22:55;16.07;;;11.07;;
11054;SDS011;5580;50.106;8.702;2023-06-10T00:25:22;14.23;;;10.53;;
11054;SDS011;5580;50.106;8.702;2023-06-10T00:27:47;16.23;;;10.90;;
11054;SDS011;5580;50.106;8.702;2023-06-10T00:30:13;13.93;;;10.67;;
11054;SDS011;5580;50.106;8.702;2023-06-10T00:32:39;17.57;;;11.30;;
11054;SDS011;5580;50.106;8.702;2023-06-10T00:35:05;15.00;;;11.00;;
11054;SDS011;5580;50.106;8.702;2023-06-10T00:37:31;14.90;;;11.20;;
11054;SDS011;5580;50.106;8.702;2023-06-10T00:39:57;15.30;;;11.27;;
11054;SDS011;5580;50.106;8.702;2023-06-10T00:42:23;14.50;;;10.93;;
11054;SDS011;5580;50.106;8.702;2023-06-10T00:44:53;14.53;;;11.40;;
11054;SDS011;5580;50.106;8.702;2023-06-10T00:47:19;14.83;;;10.90;;
11054;SDS011;5580;50.106;8.702;2023-06-10T00:49:45;14.53;;;10.97;;
11054;SDS011;5580;50.106;8.702;2023-06-10T00:52:12;17.40;;;11.47;;
11054;SDS011;5580;50.106;8.702;2023-06-10T00:54:39;15.33;;;10.63;;
11054;SDS011;5580;50.106;8.702;2023-06-10T00:57:05;15.60;;;11.17;;
11054;SDS011;5580;50.106;8.702;2023-06-10T00:59:31;15.60;;;11.00;;
11054;SDS011;5580;50.106;8.702;2023-06-10T01:01:57;14.10;;;10.67;;
11054;SDS011;5580;50.106;8.702;2023-06-10T01:04:23;15.37;;;11.40;;
11054;SDS011;5580;50.106;8.702;2023-06-10T01:10:16;14.43;;;10.70;;
11054;SDS011;5580;50.106;8.702;2023-06-10T01:12:55;15.20;;;11.97;;
11054;SDS011;5580;50.106;8.702;2023-06-10T01:15:30;15.07;;;12.00;;
11054;SDS011;5580;50.106;8.702;2023-06-10T01:20:23;16.23;;;11.70;;
11054;SDS011;5580;50.106;8.702;2023-06-10T01:22:51;16.57;;;11.87;;
11054;SDS011;5580;50.106;8.702;2023-06-10T01:25:19;17.90;;;11.73;;
11054;SDS011;5580;50.106;8.702;2023-06-10T01:27:45;15.63;;;11.13;;
11054;SDS011;5580;50.106;8.702;2023-06-10T01:30:15;17.00;;;11.77;;
11054;SDS011;5580;50.106;8.702;2023-06-10T01:32:48;17.07;;;11.40;;
11054;SDS011;5580;50.106;8.702;2023-06-10T01:35:16;16.33;;;11.33;;
11054;SDS011;5580;50.106;8.702;2023-06-10T01:37:45;17.27;;;11.90;;
11054;SDS011;5580;50.106;8.702;2023-06-10T01:40:12;14.77;;;11.30;;
11054;SDS011;5580;50.106;8.702;2023-06-10T01:42:38;15.70;;;11.67;;
11054;SDS011;5580;50.106;8.702;2023-06-10T01:45:04;14.73;;;11.13;;
11054;SDS011;5580;50.106;8.702;2023-06-10T01:47:30;15.37;;;11.60;;
11054;SDS011;5580;50.106;8.702;2023-06-10T01:49:56;14.33;;;11.23;;
11054;SDS011;5580;50.106;8.702;2023-06-10T01:52:22;14.10;;;11.20;;
11054;SDS011;5580;50.106;8.702;2023-06-10T01:54:47;16.90;;;10.67;;
11054;SDS011;5580;50.106;8.702;2023-06-10T01:57:13;16.63;;;11.07;;
11054;SDS011;5580;50.106;8.702;2023-06-10T01:59:40;16.57;;;11.77;;
11054;SDS011;5580;50.106;8.702;2023-06-10T02:02:09;14.90;;;11.13;;
11054;SDS011;5580;50.106;8.702;2023-06-10T02:04:34;15.37;;;11.13;;
11054;SDS011;5580;50.106;8.702;2023-06-10T02:07:00;16.60;;;11.50;;
11054;SDS011;5580;50.106;8.702;2023-06-10T02:09:28;14.90;;;11.03;;
11054;SDS011;5580;50.106;8.702;2023-06-10T02:11:55;17.23;;;11.07;;
11054;SDS011;5580;50.106;8.702;2023-06-10T02:14:20;16.27;;;11.33;;
11054;SDS011;5580;50.106;8.702;2023-06-10T02:16:46;14.93;;;11.10;;
11054;SDS011;5580;50.106;8.702;2023-06-10T02:19:12;15.90;;;10.67;;
11054;SDS011;5580;50.106;8.702;2023-06-10T02:21:38;16.63;;;11.53;;
11054;SDS011;5580;50.106;8.702;2023-06-10T02:24:04;14.43;;;11.03;;
11054;SDS011;5580;50.106;8.702;2023-06-10T02:26:30;14.47;;;10.53;;
11054;SDS011;5580;50.106;8.702;2023-06-10T02:28:56;16.93;;;11.03;;
11054;SDS011;5580;50.106;8.702;2023-06-10T02:31:22;15.17;;;11.10;;
11054;SDS011;5580;50.106;8.702;2023-06-10T02:33:48;15.57;;;10.70;;
11054;SDS011;5580;50.106;8.702;2023-06-10T02:36:14;15.10;;;11.33;;
11054;SDS011;5580;50.106;8.702;2023-06-10T02:38:40;14.93;;;10.87;;
11054;SDS011;5580;50.106;8.702;2023-06-10T02:41:06;14.70;;;10.97;;
11054;SDS011;5580;50.106;8.702;2023-06-10T02:43:32;15.17;;;10.80;;
11054;SDS011;5580;50.106;8.702;2023-06-10T02:45:58;16.37;;;10.97;;
11054;SDS011;5580;50.106;8.702;2023-06-10T02:48:23;16.07;;;10.60;;
11054;SDS011;5580;50.106;8.702;2023-06-10T02:50:49;15.40;;;11.13;;
11054;SDS011;5580;50.106;8.702;2023-06-10T02:53:15;15.87;;;11.10;;
11054;SDS011;5580;50.106;8.702;2023-06-10T02:55:41;14.60;;;10.43;;
11054;SDS011;5580;50.106;8.702;2023-06-10T02:58:07;13.80;;;10.57;;
11054;SDS011;5580;50.106;8.702;2023-06-10T03:00:33;13.87;;;10.97;;
11054;SDS011;5580;50.106;8.702;2023-06-10T03:02:58;16.13;;;10.90;;
11054;SDS011;5580;50.106;8.702;2023-06-10T03:05:28;13.77;;;10.37;;
11054;SDS011;5580;50.106;8.702;2023-06-10T03:07:54;13.77;;;10.43;;
11054;SDS011;5580;50.106;8.702;2023-06-10T03:10:20;14.13;;;10.50;;
11054;SDS011;5580;50.106;8.702;2023-06-10T03:12:45;14.33;;;10.40;;
11054;SDS011;5580;50.106;8.702;2023-06-10T03:15:11;16.53;;;10.80;;
11054;SDS011;5580;50.106;8.702;2023-06-10T03:17:37;15.43;;;10.23;;
11054;SDS011;5580;50.106;8.702;2023-06-10T03:20:03;16.57;;;10.63;;
11054;SDS011;5580;50.106;8.702;2023-06-10T03:22:32;13.17;;;10.20;;
11054;SDS011;5580;50.106;8.702;2023-06-10T03:24:58;14.20;;;10.57;;
11054;SDS011;5580;50.106;8.702;2023-06-10T03:27:24;13.87;;;10.50;;
11054;SDS011;5580;50.106;8.702;2023-06-10T03:29:50;14.43;;;10.77;;
11054;SDS011;5580;50.106;8.702;2023-06-10T03:32:16;15.23;;;10.50;;
11054;SDS011;5580;50.106;8.702;2023-06-10T03:34:42;16.00;;;10.93;;
11054;SDS011;5580;50.106;8.702;2023-06-10T03:37:10;13.73;;;10.53;;
11054;SDS011;5580;50.106;8.702;2023-06-10T03:39:35;15.17;;;10.83;;
11054;SDS011;5580;50.106;8.702;2023-06-10T03:42:01;14.73;;;10.37;;
11054;SDS011;5580;50.106;8.702;2023-06-10T03:44:27;13.33;;;10.60;;
11054;SDS011;5580;50.106;8.702;2023-06-10T03:46:53;14.87;;;10.43;;
11054;SDS011;5580;50.106;8.702;2023-06-10T03:49:19;14.13;;;10.37;;
11054;SDS011;5580;50.106;8.702;2023-06-10T03:51:45;15.83;;;10.57;;
11054;SDS011;5580;50.106;8.702;2023-06-10T03:54:10;15.30;;;11.00;;
11054;SDS011;5580;50.106;8.702;2023-06-10T03:56:36;16.67;;;11.63;;
11054;SDS011;5580;50.106;8.702;2023-06-10T03:59:02;14.43;;;11.13;;
11054;SDS011;5580;50.106;8.702;2023-06-10T04:01:27;17.03;;;11.10;;
11054;SDS011;5580;50.106;8.702;2023-06-10T04:03:53;16.13;;;10.80;;
11054;SDS011;5580;50.106;8.702;2023-06-10T04:06:19;16.00;;;11.00;;
11054;SDS011;5580;50.106;8.702;2023-06-10T04:08:47;16.50;;;11.40;;
11054;SDS011;5580;50.106;8.702;2023-06-10T04:11:13;14.03;;;10.53;;
11054;SDS011;5580;50.106;8.702;2023-06-10T04:13:38;15.53;;;10.97;;
11054;SDS011;5580;50.106;8.702;2023-06-10T04:16:04;16.10;;;10.87;;
11054;SDS011;5580;50.106;8.702;2023-06-10T04:18:30;18.27;;;10.93;;
11054;SDS011;5580;50.106;8.702;2023-06-10T04:20:55;16.73;;;10.63;;
11054;SDS011;5580;50.106;8.702;2023-06-10T04:23:22;13.67;;;10.00;;
11054;SDS011;5580;50.106;8.702;2023-06-10T04:25:47;13.63;;;10.03;;
11054;SDS011;5580;50.106;8.702;2023-06-10T04:28:13;14.67;;;10.13;;
11054;SDS011;5580;50.106;8.702;2023-06-10T04:30:39;14.77;;;10.27;;
11054;SDS011;5580;50.106;8.702;2023-06-10T04:33:04;13.43;;;9.90;;
11054;SDS011;5580;50.106;8.702;2023-06-10T04:35:32;14.77;;;10.27;;
11054;SDS011;5580;50.106;8.702;2023-06-10T04:37:57;13.53;;;9.70;;
11054;SDS011;5580;50.106;8.702;2023-06-10T04:40:23;13.30;;;9.43;;
11054;SDS011;5580;50.106;8.702;2023-06-10T04:42:49;13.83;;;10.20;;
11054;SDS011;5580;50.106;8.702;2023-06-10T04:45:14;18.13;;;10.10;;
11054;SDS011;5580;50.106;8.702;2023-06-10T04:47:40;13.67;;;9.90;;
11054;SDS011;5580;50.106;8.702;2023-06-10T04:50:05;14.30;;;9.13;;
11054;SDS011;5580;50.106;8.702;2023-06-10T04:52:31;14.90;;;9.97;;
11054;SDS011;5580;50.106;8.702;2023-06-10T04:54:58;14.40;;;9.60;;
11054;SDS011;5580;50.106;8.702;2023-06-10T04:57:24;12.77;;;9.20;;
11054;SDS011;5580;50.106;8.702;2023-06-10T04:59:51;16.03;;;9.70;;
11054;SDS011;5580;50.106;8.702;2023-06-10T05:02:17;12.37;;;9.30;;
11054;SDS011;5580;50.106;8.702;2023-06-10T05:04:42;13.60;;;9.70;;
11054;SDS011;5580;50.106;8.702;2023-06-10T05:07:08;12.37;;;8.93;;
11054;SDS011;5580;50.106;8.702;2023-06-10T05:09:34;14.73;;;9.40;;
11054;SDS011;5580;50.106;8.702;2023-06-10T05:11:59;13.67;;;9.30;;
11054;SDS011;5580;50.106;8.702;2023-06-10T05:14:25;15.33;;;9.10;;
11054;SDS011;5580;50.106;8.702;2023-06-10T05:16:50;12.57;;;8.70;;
11054;SDS011;5580;50.106;8.702;2023-06-10T05:19:16;15.33;;;9.20;;
11054;SDS011;5580;50.106;8.702;2023-06-10T05:21:42;13.40;;;8.87;;
11054;SDS011;5580;50.106;8.702;2023-06-10T05:24:09;12.30;;;8.90;;
11054;SDS011;5580;50.106;8.702;2023-06-10T05:26:34;12.60;;;8.57;;
11054;SDS011;5580;50.106;8.702;2023-06-10T05:29:03;14.70;;;8.77;;
11054;SDS011;5580;50.106;8.702;2023-06-10T05:31:29;19.13;;;9.37;;
11054;SDS011;5580;50.106;8.702;2023-06-10T05:33:55;12.70;;;9.00;;
11054;SDS011;5580;50.106;8.702;2023-06-10T05:36:20;15.23;;;9.20;;
11054;SDS011;5580;50.106;8.702;2023-06-10T05:38:46;13.03;;;8.47;;
11054;SDS011;5580;50.106;8.702;2023-06-10T05:41:12;13.33;;;8.77;;
11054;SDS011;5580;50.106;8.702;2023-06-10T05:43:37;12.97;;;9.13;;
11054;SDS011;5580;50.106;8.702;2023-06-10T05:46:03;13.50;;;8.97;;
11054;SDS011;5580;50.106;8.702;2023-06-10T05:48:29;14.17;;;9.27;;
11054;SDS011;5580;50.106;8.702;2023-06-10T05:50:54;12.87;;;9.00;;
11054;SDS011;5580;50.106;8.702;2023-06-10T05:53:20;10.70;;;8.47;;
11054;SDS011;5580;50.106;8.702;2023-06-10T05:55:46;14.43;;;9.03;;
11054;SDS011;5580;50.106;8.702;2023-06-10T05:58:11;13.37;;;9.30;;
11054;SDS011;5580;50.106;8.702;2023-06-10T06:00:39;17.17;;;10.43;;
11054;SDS011;5580;50.106;8.702;2023-06-10T06:03:08;11.93;;;8.90;;
11054;SDS011;5580;50.106;8.702;2023-06-10T06:05:34;14.13;;;9.10;;
11054;SDS011;5580;50.106;8.702;2023-06-10T06:08:02;13.03;;;8.83;;
11054;SDS011;5580;50.106;8.702;2023-06-10T06:10:28;12.43;;;8.77;;
11054;SDS011;5580;50.106;8.702;2023-06-10T06:12:54;13.60;;;8.60;;
11054;SDS011;5580;50.106;8.702;2023-06-10T06:15:20;14.10;;;9.20;;
11054;SDS011;5580;50.106;8.702;2023-06-10T06:17:45;13.53;;;8.53;;
11054;SDS011;5580;50.106;8.702;2023-06-10T06:20:11;14.00;;;8.87;;
11054;SDS011;5580;50.106;8.702;2023-06-10T06:22:37;13.23;;;8.63;;
11054;SDS011;5580;50.106;8.702;2023-06-10T06:25:02;13.13;;;8.23;;
11054;SDS011;5580;50.106;8.702;2023-06-10T06:27:28;14.80;;;8.70;;
11054;SDS011;5580;50.106;8.702;2023-06-10T06:29:54;13.37;;;8.73;;
11054;SDS011;5580;50.106;8.702;2023-06-10T06:32:19;14.57;;;9.13;;
11054;SDS011;5580;50.106;8.702;2023-06-10T06:34:47;13.00;;;9.60;;
11054;SDS011;5580;50.106;8.702;2023-06-10T06:37:14;13.30;;;8.80;;
11054;SDS011;5580;50.106;8.702;2023-06-10T06:39:40;13.53;;;9.40;;
11054;SDS011;5580;50.106;8.702;2023-06-10T06:42:05;13.17;;;8.70;;
11054;SDS011;5580;50.106;8.702;2023-06-10T06:44:31;14.27;;;9.03;;
11054;SDS011;5580;50.106;8.702;2023-06-10T06:46:57;14.27;;;9.13;;
11054;SDS011;5580;50.106;8.702;2023-06-10T06:49:22;16.90;;;9.30;;
11054;SDS011;5580;50.106;8.702;2023-06-10T06:51:48;12.97;;;8.77;;
11054;SDS011;5580;50.106;8.702;2023-06-10T06:54:13;14.67;;;9.10;;
11054;SDS011;5580;50.106;8.702;2023-06-10T06:56:39;15.57;;;9.10;;
11054;SDS011;5580;50.106;8.702;2023-06-10T06:59:04;14.23;;;9.50;;
11054;SDS011;5580;50.106;8.702;2023-06-10T07:01:30;15.00;;;9.50;;
11054;SDS011;5580;50.106;8.702;2023-06-10T07:03:58;18.37;;;9.77;;
11054;SDS011;5580;50.106;8.702;2023-06-10T07:06:23;14.03;;;9.50;;
11054;SDS011;5580;50.106;8.702;2023-06-10T07:08:49;13.77;;;9.60;;
11054;SDS011;5580;50.106;8.702;2023-06-10T07:11:16;12.23;;;8.80;;
11054;SDS011;5580;50.106;8.702;2023-06-10T07:13:42;12.80;;;9.40;;
11054;SDS011;5580;50.106;8.702;2023-06-10T07:16:08;12.90;;;9.10;;
11054;SDS011;5580;50.106;8.702;2023-06-10T07:18:33;14.53;;;9.07;;
11054;SDS011;5580;50.106;8.702;2023-06-10T07:20:59;15.97;;;9.37;;
11054;SDS011;5580;50.106;8.702;2023-06-10T07:23:25;14.40;;;9.63;;
11054;SDS011;5580;50.106;8.702;2023-06-10T07:25:50;13.43;;;8.97;;
11054;SDS011;5580;50.106;8.702;2023-06-10T07:28:16;15.13;;;9.63;;
11054;SDS011;5580;50.106;8.702;2023-06-10T07:30:41;12.17;;;9.47;;
11054;SDS011;5580;50.106;8.702;2023-06-10T07:33:07;14.53;;;9.57;;
11054;SDS011;5580;50.106;8.702;2023-06-10T07:35:32;15.23;;;9.87;;
11054;SDS011;5580;50.106;8.702;2023-06-10T07:37:58;12.97;;;9.00;;
11054;SDS011;5580;50.106;8.702;2023-06-10T07:40:24;12.70;;;9.27;;
11054;SDS011;5580;50.106;8.702;2023-06-10T07:42:49;13.33;;;9.00;;
11054;SDS011;5580;50.106;8.702;2023-06-10T07:45:15;13.03;;;9.50;;
11054;SDS011;5580;50.106;8.702;2023-06-10T07:47:42;13.90;;;9.83;;
11054;SDS011;5580;50.106;8.702;2023-06-10T07:50:08;14.70;;;9.47;;
11054;SDS011;5580;50.106;8.702;2023-06-10T07:52:34;12.90;;;8.90;;
11054;SDS011;5580;50.106;8.702;2023-06-10T07:55:00;15.83;;;8.87;;
11054;SDS011;5580;50.106;8.702;2023-06-10T07:57:25;11.90;;;9.27;;
11054;SDS011;5580;50.106;8.702;2023-06-10T07:59:51;13.73;;;9.23;;
11054;SDS011;5580;50.106;8.702;2023-06-10T08:02:17;15.00;;;9.60;;
11054;SDS011;5580;50.106;8.702;2023-06-10T08:04:42;13.52;;;10.25;;
11054;SDS011;5580;50.106;8.702;2023-06-10T08:07:08;13.80;;;9.37;;
11054;SDS011;5580;50.106;8.702;2023-06-10T08:09:33;12.50;;;9.07;;
11054;SDS011;5580;50.106;8.702;2023-06-10T08:11:59;14.93;;;9.63;;
11054;SDS011;5580;50.106;8.702;2023-06-10T08:14:25;13.93;;;9.50;;
11054;SDS011;5580;50.106;8.702;2023-06-10T08:16:51;12.63;;;9.57;;
11054;SDS011;5580;50.106;8.702;2023-06-10T08:19:16;14.30;;;9.77;;
11054;SDS011;5580;50.106;8.702;2023-06-10T08:21:42;13.33;;;9.20;;
11054;SDS011;5580;50.106;8.702;2023-06-10T08:24:08;12.70;;;9.30;;
11054;SDS011;5580;50.106;8.702;2023-06-10T08:26:34;15.00;;;10.03;;
11054;SDS011;5580;50.106;8.702;2023-06-10T08:29:00;14.10;;;9.90;;
11054;SDS011;5580;50.106;8.702;2023-06-10T08:31:25;14.57;;;9.60;;
11054;SDS011;5580;50.106;8.702;2023-06-10T08:33:51;14.00;;;9.53;;
11054;SDS011;5580;50.106;8.702;2023-06-10T08:36:17;12.90;;;9.50;;
11054;SDS011;5580;50.106;8.702;2023-06-10T08:38:42;15.20;;;9.80;;
11054;SDS011;5580;50.106;8.702;2023-06-10T08:41:08;13.20;;;9.80;;
11054;SDS011;5580;50.106;8.702;2023-06-10T08:43:42;16.13;;;9.93;;
11054;SDS011;5580;50.106;8.702;2023-06-10T08:46:11;13.40;;;9.53;;
11054;SDS011;5580;50.106;8.702;2023-06-10T08:48:42;13.80;;;9.73;;
11054;SDS011;5580;50.106;8.702;2023-06-10T08:51:09;14.13;;;9.70;;
11054;SDS011;5580;50.106;8.702;2023-06-10T08:53:36;14.10;;;9.50;;
11054;SDS011;5580;50.106;8.702;2023-06-10T08:56:06;13.67;;;9.53;;
11054;SDS011;5580;50.106;8.702;2023-06-10T08:58:32;13.33;;;9.70;;
11054;SDS011;5580;50.106;8.702;2023-06-10T09:01:00;12.93;;;9.50;;
11054;SDS011;5580;50.106;8.702;2023-06-10T09:03:26;13.43;;;9.30;;
11054;SDS011;5580;50.106;8.702;2023-06-10T09:05:53;13.53;;;9.57;;
11054;SDS011;5580;50.106;8.702;2023-06-10T09:08:21;13.40;;;9.53;;
11054;SDS011;5580;50.106;8.702;2023-06-10T09:10:47;14.47;;;9.47;;
11054;SDS011;5580;50.106;8.702;2023-06-10T09:13:13;13.80;;;9.53;;
11054;SDS011;5580;50.106;8.702;2023-06-10T09:15:40;13.67;;;9.20;;
11054;SDS011;5580;50.106;8.702;2023-06-10T09:18:06;13.60;;;9.50;;
11054;SDS011;5580;50.106;8.702;2023-06-10T09:20:32;12.67;;;9.43;;
11054;SDS011;5580;50.106;8.702;2023-06-10T09:22:59;12.70;;;9.23;;
11054;SDS011;5580;50.106;8.702;2023-06-10T09:25:34;12.77;;;9.50;;
11054;SDS011;5580;50.106;8.702;2023-06-10T09:28:03;13.43;;;9.30;;
11054;SDS011;5580;50.106;8.702;2023-06-10T09:30:29;13.75;;;9.18;;
11054;SDS011;5580;50.106;8.702;2023-06-10T09:32:56;12.73;;;9.13;;
11054;SDS011;5580;50.106;8.702;2023-06-10T09:35:25;13.90;;;9.32;;
11054;SDS011;5580;50.106;8.702;2023-06-10T09:37:52;14.30;;;9.40;;
11054;SDS011;5580;50.106;8.702;2023-06-10T09:40:18;14.63;;;9.50;;
11054;SDS011;5580;50.106;8.702;2023-06-10T09:42:44;12.73;;;9.27;;
11054;SDS011;5580;50.106;8.702;2023-06-10T09:45:10;13.20;;;8.77;;
11054;SDS011;5580;50.106;8.702;2023-06-10T09:47:36;13.17;;;9.27;;
11054;SDS011;5580;50.106;8.702;2023-06-10T09:50:01;12.23;;;9.20;;
11054;SDS011;5580;50.106;8.702;2023-06-10T09:52:28;13.15;;;9.38;;
11054;SDS011;5580;50.106;8.702;2023-06-10T09:54:58;14.27;;;9.13;;
11054;SDS011;5580;50.106;8.702;2023-06-10T09:57:31;13.23;;;9.40;;
11054;SDS011;5580;50.106;8.702;2023-06-10T09:59:58;11.57;;;8.85;;
11054;SDS011;5580;50.106;8.702;2023-06-10T10:02:28;15.27;;;9.20;;
11054;SDS011;5580;50.106;8.702;2023-06-10T10:04:59;11.90;;;8.83;;
11054;SDS011;5580;50.106;8.702;2023-06-10T10:07:27;14.10;;;9.07;;
11054;SDS011;5580;50.106;8.702;2023-06-10T10:09:53;11.07;;;8.70;;
11054;SDS011;5580;50.106;8.702;2023-06-10T10:12:19;14.18;;;8.77;;
11054;SDS011;5580;50.106;8.702;2023-06-10T10:14:46;12.93;;;8.90;;
11054;SDS011;5580;50.106;8.702;2023-06-10T10:17:14;13.38;;;8.48;;
11054;SDS011;5580;50.106;8.702;2023-06-10T10:19:46;12.32;;;8.98;;
11054;SDS011;5580;50.106;8.702;2023-06-10T10:22:26;12.07;;;9.20;;
11054;SDS011;5580;50.106;8.702;2023-06-10T10:24:55;14.90;;;8.60;;
11054;SDS011;5580;50.106;8.702;2023-06-10T10:27:30;11.95;;;9.00;;
11054;SDS011;5580;50.106;8.702;2023-06-10T10:30:00;12.07;;;8.07;;
11054;SDS011;5580;50.106;8.702;2023-06-10T10:32:34;13.40;;;8.60;;
11054;SDS011;5580;50.106;8.702;2023-06-10T10:35:14;12.35;;;8.65;;
11054;SDS011;5580;50.106;8.702;2023-06-10T10:37:48;14.20;;;8.25;;
11054;SDS011;5580;50.106;8.702;2023-06-10T10:40:14;11.20;;;8.10;;
11054;SDS011;5580;50.106;8.702;2023-06-10T10:42:41;13.63;;;8.10;;
11054;SDS011;5580;50.106;8.702;2023-06-10T10:45:07;11.30;;;8.05;;
11054;SDS011;5580;50.106;8.702;2023-06-10T10:47:34;13.25;;;8.63;;
11054;SDS011;5580;50.106;8.702;2023-06-10T10:50:03;12.10;;;8.15;;
11054;SDS011;5580;50.106;8.702;2023-06-10T10:52:55;10.70;;;7.72;;
11054;SDS011;5580;50.106;8.702;2023-06-10T10:55:23;12.57;;;8.02;;
11054;SDS011;5580;50.106;8.702;2023-06-10T10:57:58;11.17;;;7.90;;
11054;SDS011;5580;50.106;8.702;2023-06-10T11:00:35;12.52;;;8.20;;
11054;SDS011;5580;50.106;8.702;2023-06-10T11:08:03;12.75;;;8.48;;
11054;SDS011;5580;50.106;8.702;2023-06-10T11:10:37;12.32;;;8.10;;
11054;SDS011;5580;50.106;8.702;2023-06-10T11:13:12;11.68;;;8.05;;
11054;SDS011;5580;50.106;8.702;2023-06-10T11:15:39;11.23;;;7.87;;
11054;SDS011;5580;50.106;8.702;2023-06-10T11:18:10;13.67;;;8.07;;
11054;SDS011;5580;50.106;8.702;2023-06-10T11:28:37;11.75;;;7.45;;
11054;SDS011;5580;50.106;8.702;2023-06-10T11:31:03;10.35;;;7.43;;
11054;SDS011;5580;50.106;8.702;2023-06-10T11:33:29;13.77;;;7.90;;
11054;SDS011;5580;50.106;8.702;2023-06-10T11:35:55;15.07;;;7.80;;
11054;SDS011;5580;50.106;8.702;2023-06-10T11:38:21;13.77;;;7.55;;
11054;SDS011;5580;50.106;8.702;2023-06-10T11:40:50;11.80;;;7.63;;
11054;SDS011;5580;50.106;8.702;2023-06-10T11:43:19;14.17;;;7.80;;
11054;SDS011;5580;50.106;8.702;2023-06-10T11:45:45;11.55;;;7.35;;
11054;SDS011;5580;50.106;8.702;2023-06-10T11:48:12;10.68;;;7.28;;
11054;SDS011;5580;50.106;8.702;2023-06-10T11:50:38;10.38;;;7.25;;
11054;SDS011;5580;50.106;8.702;2023-06-10T11:53:07;11.40;;;7.32;;
11054;SDS011;5580;50.106;8.702;2023-06-10T11:55:43;12.05;;;6.88;;
11054;SDS011;5580;50.106;8.702;2023-06-10T12:03:24;12.77;;;8.27;;
11054;SDS011;5580;50.106;8.702;2023-06-10T12:05:57;9.43;;;7.50;;
11054;SDS011;5580;50.106;8.702;2023-06-10T12:08:24;12.40;;;7.95;;
11054;SDS011;5580;50.106;8.702;2023-06-10T12:10:50;13.07;;;8.00;;
11054;SDS011;5580;50.106;8.702;2023-06-10T12:13:16;10.43;;;7.85;;
11054;SDS011;5580;50.106;8.702;2023-06-10T12:15:45;10.57;;;7.80;;
11054;SDS011;5580;50.106;8.702;2023-06-10T12:18:17;15.20;;;8.05;;
11054;SDS011;5580;50.106;8.702;2023-06-10T12:20:47;12.43;;;7.85;;
11054;SDS011;5580;50.106;8.702;2023-06-10T12:23:14;12.75;;;8.10;;
11054;SDS011;5580;50.106;8.702;2023-06-10T12:25:49;11.82;;;8.30;;
11054;SDS011;5580;50.106;8.702;2023-06-10T12:28:16;11.35;;;7.72;;
11054;SDS011;5580;50.106;8.702;2023-06-10T12:30:44;13.47;;;7.77;;
11054;SDS011;5580;50.106;8.702;2023-06-10T12:33:19;11.70;;;7.70;;
11054;SDS011;5580;50.106;8.702;2023-06-10T12:35:51;10.40;;;7.90;;
11054;SDS011;5580;50.106;8.702;2023-06-10T12:38:24;11.15;;;8.02;;
11054;SDS011;5580;50.106;8.702;2023-06-10T12:40:54;10.75;;;7.55;;
11054;SDS011;5580;50.106;8.702;2023-06-10T12:43:21;12.95;;;8.13;;
11054;SDS011;5580;50.106;8.702;2023-06-10T12:45:48;11.07;;;7.70;;
11054;SDS011;5580;50.106;8.702;2023-06-10T12:48:18;11.43;;;7.95;;
11054;SDS011;5580;50.106;8.702;2023-06-10T12:50:46;11.80;;;7.80;;
11054;SDS011;5580;50.106;8.702;2023-06-10T12:53:30;11.93;;;7.95;;
11054;SDS011;5580;50.106;8.702;2023-06-10T12:55:56;10.77;;;7.50;;
11054;SDS011;5580;50.106;8.702;2023-06-10T12:58:24;13.25;;;8.13;;
11054;SDS011;5580;50.106;8.702;2023-06-10T13:00:49;14.07;;;8.00;;
11054;SDS011;5580;50.106;8.702;2023-06-10T13:03:17;10.70;;;8.23;;
11054;SDS011;5580;50.106;8.702;2023-06-10T13:05:43;11.88;;;7.90;;
11054;SDS011;5580;50.106;8.702;2023-06-10T13:08:08;10.65;;;7.90;;
11054;SDS011;5580;50.106;8.702;2023-06-10T13:10:38;13.30;;;7.88;;
11054;SDS011;5580;50.106;8.702;2023-06-10T13:13:03;11.40;;;7.63;;
11054;SDS011;5580;50.106;8.702;2023-06-10T13:15:31;14.68;;;7.90;;
11054;SDS011;5580;50.106;8.702;2023-06-10T13:17:57;10.23;;;7.32;;
11054;SDS011;5580;50.106;8.702;2023-06-10T13:20:23;11.10;;;7.38;;
11054;SDS011;5580;50.106;8.702;2023-06-10T13:22:49;11.18;;;7.18;;
11054;SDS011;5580;50.106;8.702;2023-06-10T13:25:15;10.07;;;7.35;;
11054;SDS011;5580;50.106;8.702;2023-06-10T13:27:40;11.88;;;7.57;;
11054;SDS011;5580;50.106;8.702;2023-06-10T13:30:07;11.93;;;7.80;;
11054;SDS011;5580;50.106;8.702;2023-06-10T13:32:34;10.50;;;7.03;;
11054;SDS011;5580;50.106;8.702;2023-06-10T13:35:00;10.35;;;7.13;;
11054;SDS011;5580;50.106;8.702;2023-06-10T13:37:26;13.80;;;7.93;;
11054;SDS011;5580;50.106;8.702;2023-06-10T13:39:52;11.13;;;7.97;;
11054;SDS011;5580;50.106;8.702;2023-06-10T13:42:19;10.95;;;7.93;;
11054;SDS011;5580;50.106;8.702;2023-06-10T13:44:45;12.40;;;7.72;;
11054;SDS011;5580;50.106;8.702;2023-06-10T13:47:12;10.93;;;7.53;;
11054;SDS011;5580;50.106;8.702;2023-06-10T13:49:38;12.68;;;7.70;;
11054;SDS011;5580;50.106;8.702;2023-06-10T13:52:05;10.70;;;7.13;;
11054;SDS011;5580;50.106;8.702;2023-06-10T13:54:31;10.55;;;6.75;;
11054;SDS011;5580;50.106;8.702;2023-06-10T13:56:57;11.10;;;6.70;;
11054;SDS011;5580;50.106;8.702;2023-06-10T13:59:22;10.00;;;6.53;;
11054;SDS011;5580;50.106;8.702;2023-06-10T14:01:48;10.20;;;6.60;;
11054;SDS011;5580;50.106;8.702;2023-06-10T14:04:14;9.73;;;6.65;;
11054;SDS011;5580;50.106;8.702;2023-06-10T14:06:39;10.25;;;6.80;;
11054;SDS011;5580;50.106;8.702;2023-06-10T14:09:05;10.25;;;6.40;;
11054;SDS011;5580;50.106;8.702;2023-06-10T14:11:30;21.42;;;18.13;;
11054;SDS011;5580;50.106;8.702;2023-06-10T14:13:56;16.23;;;11.07;;
11054;SDS011;5580;50.106;8.702;2023-06-10T14:16:22;19.73;;;16.00;;
11054;SDS011;5580;50.106;8.702;2023-06-10T14:18:48;18.45;;;15.07;;
11054;SDS011;5580;50.106;8.702;2023-06-10T14:21:15;14.80;;;11.00;;
11054;SDS011;5580;50.106;8.702;2023-06-10T14:23:41;10.30;;;7.60;;
11054;SDS011;5580;50.106;8.702;2023-06-10T14:26:08;12.85;;;7.47;;
11054;SDS011;5580;50.106;8.702;2023-06-10T14:28:34;29.75;;;26.65;;
11054;SDS011;5580;50.106;8.702;2023-06-10T14:31:00;24.10;;;20.60;;
11054;SDS011;5580;50.106;8.702;2023-06-10T14:33:26;13.10;;;9.23;;
11054;SDS011;5580;50.106;8.702;2023-06-10T14:35:51;13.75;;;10.77;;
11054;SDS011;5580;50.106;8.702;2023-06-10T14:38:17;11.45;;;8.00;;
11054;SDS011;5580;50.106;8.702;2023-06-10T14:40:43;9.18;;;6.20;;
11054;SDS011;5580;50.106;8.702;2023-06-10T14:43:08;12.35;;;6.88;;
11054;SDS011;5580;50.106;8.702;2023-06-10T14:45:38;14.35;;;7.20;;
11054;SDS011;5580;50.106;8.702;2023-06-10T14:48:05;13.18;;;6.85;;
11054;SDS011;5580;50.106;8.702;2023-06-10T14:50:32;8.68;;;6.70;;
11054;SDS011;5580;50.106;8.702;2023-06-10T14:53:00;9.20;;;6.70;;
11054;SDS011;5580;50.106;8.702;2023-06-10T14:55:26;8.55;;;6.65;;
11054;SDS011;5580;50.106;8.702;2023-06-10T14:57:53;10.18;;;6.55;;
11054;SDS011;5580;50.106;8.702;2023-06-10T15:00:18;11.00;;;6.80;;
11054;SDS011;5580;50.106;8.702;2023-06-10T15:02:48;7.97;;;6.30;;
11054;SDS011;5580;50.106;8.702;2023-06-10T15:05:14;10.45;;;6.45;;